Time;durP1;ratioP1;P1;durP2;ratioP2;P2;SDS_P1;SDS_P2;PMS_P1;PMS_P2;Temp;Humidity;BMP_temperature;BMP_pressure;BME280_temperature;BME280_humidity;BME280_pressure;Samples;Min_cycle;Max_cycle;Signal;HPM_P1;HPM_P2
2021/05/10 00:02:52;;;;;;;2.50;2.30;;;;;;;14.76;96.15;97978.09;10458049;28;20199;-75
2021/05/10 00:08:11;;;;;;;2.63;1.77;;;;;;;14.69;94.28;97964.53;10459463;28;20179;-76
2021/05/10 00:13:30;;;;;;;28.73;2.53;;;;;;;14.61;96.31;97964.03;10457467;28;20171;-75
2021/05/10 00:18:49;;;;;;;1.53;1.43;;;;;;;14.63;97.48;97967.13;10457616;28;20176;-75
2021/05/10 00:24:09;;;;;;;2.63;2.43;;;;;;;14.39;97.30;97968.03;10458389;28;20629;-74
2021/05/10 00:29:27;;;;;;;2.43;1.83;;;;;;;14.26;97.16;97966.53;10456835;28;20298;-75
2021/05/10 00:34:46;;;;;;;2.53;2.33;;;;;;;14.20;96.27;97952.53;10456027;28;20669;-75
2021/05/10 00:40:06;;;;;;;2.40;2.20;;;;;;;14.25;97.13;97974.06;10458034;28;20187;-76
2021/05/10 00:45:26;;;;;;;2.10;1.90;;;;;;;14.24;96.66;97991.13;10456594;28;20207;-76
2021/05/10 00:50:45;;;;;;;1.97;1.87;;;;;;;14.02;97.35;97988.31;10457551;28;20175;-75
2021/05/10 00:56:05;;;;;;;3.00;1.90;;;;;;;13.94;100.00;97998.06;10457479;28;20179;-77
2021/05/10 01:01:24;;;;;;;2.43;2.23;;;;;;;13.81;100.00;97999.31;10456096;28;20187;-75
2021/05/10 01:06:43;;;;;;;1.90;1.80;;;;;;;13.92;100.00;98010.78;10441489;28;20297;-76
2021/05/10 01:12:02;;;;;;;2.23;2.00;;;;;;;13.86;100.00;98018.09;10456904;28;20180;-75
2021/05/10 01:17:21;;;;;;;2.40;2.20;;;;;;;13.49;100.00;98026.47;10455493;28;20588;-75
2021/05/10 01:22:45;;;;;;;4.83;2.30;;;;;;;13.22;100.00;98015.09;10455462;28;20175;-75
2021/05/10 01:28:05;;;;;;;2.23;1.73;;;;;;;13.20;100.00;98014.75;10454903;28;20219;-75
2021/05/10 01:33:24;;;;;;;8.93;2.13;;;;;;;13.13;100.00;98012.22;10455013;28;20176;-75
2021/05/10 01:38:44;;;;;;;1.80;1.70;;;;;;;13.06;100.00;97993.09;10456085;28;20180;-75
2021/05/10 01:44:03;;;;;;;2.30;2.10;;;;;;;13.05;100.00;97988.81;10455879;28;20646;-76
2021/05/10 01:49:22;;;;;;;3.27;2.10;;;;;;;12.99;100.00;97987.81;10453142;28;20179;-75
2021/05/10 01:54:48;;;;;;;2.60;2.00;;;;;;;13.04;100.00;97996.31;10454517;28;20179;-75
2021/05/10 02:00:12;;;;;;;2.17;1.77;;;;;;;13.12;100.00;98005.16;10454726;28;20167;-76
2021/05/10 02:05:32;;;;;;;1.77;1.50;;;;;;;12.91;100.00;97992.00;10454066;28;20215;-76
2021/05/10 02:10:51;;;;;;;3.23;2.63;;;;;;;12.86;100.00;97998.03;10455545;28;20176;-74
2021/05/10 02:16:11;;;;;;;2.00;1.70;;;;;;;12.61;100.00;97977.91;10454072;28;20183;-75
2021/05/10 02:21:30;;;;;;;2.07;1.60;;;;;;;12.61;100.00;97970.38;10455338;28;20175;-75
2021/05/10 02:26:49;;;;;;;2.60;2.40;;;;;;;12.76;100.00;97985.34;10454367;28;20705;-75
2021/05/10 02:32:08;;;;;;;3.87;2.60;;;;;;;12.75;100.00;97992.81;10453997;28;20597;-76
2021/05/10 02:37:27;;;;;;;2.40;1.63;;;;;;;12.83;100.00;97979.59;10454986;28;20529;-75
2021/05/10 02:42:46;;;;;;;2.30;1.70;;;;;;;12.67;100.00;97985.22;10454974;28;20179;-74
2021/05/10 02:48:05;;;;;;;1.80;1.70;;;;;;;12.55;100.00;97969.41;10452489;28;20540;-74
2021/05/10 02:53:25;;;;;;;2.00;1.80;;;;;;;12.43;100.00;97961.88;10453635;28;20274;-74
2021/05/10 02:58:44;;;;;;;2.40;1.93;;;;;;;12.37;100.00;97963.63;10455982;28;20168;-75
2021/05/10 03:04:03;;;;;;;2.67;2.20;;;;;;;12.37;100.00;97952.59;10460271;28;20211;-74
2021/05/10 03:09:22;;;;;;;2.60;1.90;;;;;;;12.41;100.00;97963.50;10461810;28;20547;-75
2021/05/10 03:14:42;;;;;;;2.10;2.00;;;;;;;12.17;100.00;97957.50;10460405;28;20418;-75
2021/05/10 03:20:04;;;;;;;4.30;2.30;;;;;;;12.13;100.00;97967.84;10458738;28;20173;-74
2021/05/10 03:25:23;;;;;;;2.10;1.90;;;;;;;12.02;100.00;97975.66;10460587;28;20203;-75
2021/05/10 03:30:42;;;;;;;2.20;2.03;;;;;;;11.98;100.00;97985.97;10459561;28;20709;-74
2021/05/10 03:36:01;;;;;;;2.20;2.00;;;;;;;12.03;100.00;97990.19;10459584;28;20199;-74
2021/05/10 03:41:22;;;;;;;3.47;2.20;;;;;;;11.85;100.00;97980.84;10460344;28;20254;-75
2021/05/10 03:46:41;;;;;;;1.60;1.50;;;;;;;11.74;100.00;97970.13;10457429;28;20207;-74
2021/05/10 03:52:00;;;;;;;4.60;2.80;;;;;;;11.77;100.00;97962.97;10458764;28;20176;-75
2021/05/10 03:57:19;;;;;;;3.33;1.93;;;;;;;11.81;100.00;97960.88;10460018;28;20172;-75
2021/05/10 04:02:39;;;;;;;1.97;1.70;;;;;;;11.79;100.00;97982.59;10458297;28;20179;-75
2021/05/10 04:13:50;;;;;;;3.50;2.10;;;;;;;11.81;100.00;97980.94;10453141;28;20638;-75
2021/05/10 04:19:09;;;;;;;2.40;1.90;;;;;;;12.01;100.00;97998.91;10457689;28;20171;-75
2021/05/10 04:24:28;;;;;;;2.40;2.20;;;;;;;12.13;100.00;97997.41;10458548;28;20203;-75
2021/05/10 04:29:47;;;;;;;4.23;2.70;;;;;;;12.02;100.00;97991.41;10457842;28;20215;-73
2021/05/10 04:35:06;;;;;;;2.20;2.00;;;;;;;12.00;100.00;97997.34;10456941;28;20202;-75
2021/05/10 04:40:25;;;;;;;3.73;2.20;;;;;;;12.18;100.00;97994.91;10456978;28;20187;-75
2021/05/10 04:45:44;;;;;;;2.97;2.57;;;;;;;12.44;100.00;98007.53;10455189;28;20214;-74
2021/05/10 04:51:04;;;;;;;2.13;1.47;;;;;;;12.63;100.00;98019.63;10457774;28;20521;-74
2021/05/10 04:56:23;;;;;;;5.30;2.60;;;;;;;12.72;100.00;98030.81;10457534;28;20635;-74
2021/05/10 05:01:43;;;;;;;3.70;2.20;;;;;;;12.95;100.00;98023.81;10456139;28;20622;-75
2021/05/10 05:07:02;;;;;;;3.00;2.63;;;;;;;13.35;100.00;98024.13;10466120;28;20653;-77
2021/05/10 05:12:21;;;;;;;2.73;2.53;;;;;;;13.75;100.00;98021.22;10497279;28;20174;-77
2021/05/10 05:17:40;;;;;;;4.20;2.43;;;;;;;14.04;100.00;98034.84;10496552;28;20183;-76
2021/05/10 05:22:59;;;;;;;2.47;2.27;;;;;;;14.42;100.00;98045.38;10496183;28;20707;-76
2021/05/10 05:28:18;;;;;;;3.00;2.70;;;;;;;14.80;100.00;98083.94;10497374;28;20226;-76
2021/05/10 05:33:37;;;;;;;2.37;2.20;;;;;;;14.98;100.00;98097.91;10496469;28;20202;-78
2021/05/10 05:38:56;;;;;;;3.00;2.70;;;;;;;15.21;100.00;98093.44;10496649;28;20208;-76
2021/05/10 05:44:15;;;;;;;7.07;2.87;;;;;;;15.40;100.00;98092.34;10497375;28;20668;-76
2021/05/10 05:49:36;;;;;;;3.50;3.00;;;;;;;15.54;100.00;98093.81;10487538;28;20194;-77
2021/05/10 05:54:56;;;;;;;4.00;2.80;;;;;;;15.73;100.00;98098.97;10496296;28;20182;-77
2021/05/10 06:00:16;;;;;;;3.57;3.10;;;;;;;15.86;100.00;98102.38;10474584;28;20589;-76
2021/05/10 06:05:35;;;;;;;2.60;2.40;;;;;;;16.14;100.00;98124.19;10480139;28;20218;-78
2021/05/10 06:10:54;;;;;;;2.70;2.50;;;;;;;16.60;98.79;98150.06;10496886;28;20625;-75
2021/05/10 06:16:13;;;;;;;4.00;2.80;;;;;;;17.00;97.92;98146.69;10494534;28;20182;-77
2021/05/10 06:21:32;;;;;;;2.90;2.63;;;;;;;17.62;88.85;98147.84;10495839;28;20253;-77
2021/05/10 06:26:51;;;;;;;2.60;2.33;;;;;;;18.05;86.42;98139.78;10494884;28;20226;-77
2021/05/10 06:32:10;;;;;;;4.33;2.57;;;;;;;18.42;69.39;98136.34;10495900;28;20207;-77
2021/05/10 06:37:29;;;;;;;2.40;2.20;;;;;;;19.00;67.97;98128.16;10503000;28;20182;-77
2021/05/10 06:42:48;;;;;;;2.30;2.10;;;;;;;19.32;63.15;98128.06;10504059;28;20183;-78
2021/05/10 06:48:07;;;;;;;3.77;2.77;;;;;;;19.43;63.89;98119.13;10502649;28;20179;-76
2021/05/10 06:53:27;;;;;;;4.57;2.90;;;;;;;19.21;64.46;98129.88;10502564;28;20187;-77
2021/05/10 06:58:46;;;;;;;4.00;2.70;;;;;;;19.11;62.51;98142.34;10503541;28;20174;-76
2021/05/10 07:04:05;;;;;;;2.83;2.63;;;;;;;19.20;61.59;98147.84;10501798;28;20210;-77
2021/05/10 07:09:24;;;;;;;3.10;2.90;;;;;;;19.54;63.16;98147.22;10503294;28;20645;-77
2021/05/10 07:14:42;;;;;;;3.77;3.40;;;;;;;19.90;63.25;98149.59;10501631;28;20207;-78
2021/05/10 07:20:02;;;;;;;4.80;3.27;;;;;;;20.21;57.91;98165.34;10501604;28;20249;-77
2021/05/10 07:25:22;;;;;;;3.43;3.13;;;;;;;20.37;60.11;98166.84;10502056;28;20559;-77
2021/05/10 07:30:41;;;;;;;3.10;2.57;;;;;;;20.96;58.50;98157.75;10499988;28;20190;-76
2021/05/10 07:36:00;;;;;;;3.30;2.90;;;;;;;21.86;52.74;98157.72;10501082;28;20209;-76
2021/05/10 07:41:20;;;;;;;3.50;2.63;;;;;;;22.29;51.23;98150.91;10500788;28;20634;-77
2021/05/10 07:46:40;;;;;;;3.20;2.23;;;;;;;22.99;53.40;98154.59;10499369;28;20202;-77
2021/05/10 07:52:00;;;;;;;2.30;2.10;;;;;;;23.72;49.04;98161.47;10501493;28;20175;-77
2021/05/10 07:57:19;;;;;;;3.20;2.50;;;;;;;24.09;49.81;98173.25;10500216;28;20162;-76
2021/05/10 08:02:38;;;;;;;2.90;2.70;;;;;;;24.24;46.45;98166.09;10499844;28;20210;-76
2021/05/10 08:07:57;;;;;;;2.67;2.30;;;;;;;24.38;45.16;98170.66;10500725;28;20174;-77
2021/05/10 08:13:16;;;;;;;3.47;2.67;;;;;;;24.78;46.60;98174.97;10500486;28;20178;-77
2021/05/10 08:18:41;;;;;;;1.80;1.67;;;;;;;24.70;42.78;98173.97;10499119;28;20167;-77
2021/05/10 08:24:01;;;;;;;2.20;2.00;;;;;;;24.44;47.22;98163.00;10499904;28;20206;-78
2021/05/10 08:29:20;;;;;;;2.13;1.67;;;;;;;25.00;44.15;98139.84;10498225;28;20223;-77
2021/05/10 08:34:39;;;;;;;7.43;2.00;;;;;;;25.55;43.19;98144.44;10501136;28;20666;-78
2021/05/10 08:39:59;;;;;;;4.50;1.97;;;;;;;25.40;44.16;98152.47;10492984;28;20199;-77
2021/05/10 08:45:23;;;;;;;1.93;1.73;;;;;;;23.74;46.87;98167.38;10498834;28;20218;-79
2021/05/10 08:50:42;;;;;;;1.67;1.37;;;;;;;23.32;49.81;98194.03;10477989;28;20191;-77
2021/05/10 08:56:01;;;;;;;2.60;1.87;;;;;;;24.27;47.94;98200.84;10474801;28;20199;-78
2021/05/10 09:01:21;;;;;;;2.10;2.00;;;;;;;24.89;44.49;98186.16;10478045;28;20175;-78
2021/05/10 09:06:40;;;;;;;2.97;1.80;;;;;;;25.69;44.86;98186.31;10476931;28;20210;-78
2021/05/10 09:12:00;;;;;;;6.70;2.70;;;;;;;25.62;45.34;98217.13;10467353;28;20190;-79
2021/05/10 09:17:19;;;;;;;2.17;1.97;;;;;;;24.59;48.42;98253.53;10467637;28;20187;-76
2021/05/10 09:23:02;;;;;;;2.27;1.97;;;;;;;25.71;48.34;98217.56;10472976;28;20187;-77
2021/05/10 09:28:25;;;;;;;1.93;1.83;;;;;;;25.96;42.64;98222.81;10470426;28;20684;-77
2021/05/10 09:33:46;;;;;;;3.83;2.03;;;;;;;25.54;44.33;98216.88;10467449;28;20203;-78
2021/05/10 09:39:08;;;;;;;1.57;1.23;;;;;;;25.94;42.84;98239.47;10471012;28;20220;-78
2021/05/10 09:44:40;;;;;;;1.80;1.70;;;;;;;25.72;42.91;98230.38;10473801;28;20214;-76
2021/05/10 09:49:59;;;;;;;2.53;1.83;;;;;;;25.38;44.34;98220.56;10480446;28;20529;-78
2021/05/10 09:55:18;;;;;;;3.57;1.83;;;;;;;25.26;44.73;98216.28;10476882;28;21949;-78
2021/05/10 10:00:39;;;;;;;2.27;1.77;;;;;;;24.62;46.34;98223.59;10483777;28;20175;-79
2021/05/10 10:06:01;;;;;;;5.23;2.13;;;;;;;24.50;46.34;98219.25;10468022;28;20214;-77
2021/05/10 10:11:22;;;;;;;5.13;1.90;;;;;;;24.78;46.60;98228.41;10482528;28;20609;-77
2021/05/10 10:16:42;;;;;;;1.87;1.77;;;;;;;25.03;46.02;98225.28;10487459;28;20175;-77
2021/05/10 10:22:01;;;;;;;2.80;2.27;;;;;;;25.55;44.92;98231.75;10479729;28;20182;-77
2021/05/10 10:27:22;;;;;;;2.87;2.17;;;;;;;25.60;45.53;98233.75;10472437;28;20748;-77
2021/05/10 10:32:43;;;;;;;1.97;1.87;;;;;;;26.03;45.16;98232.75;10495787;28;20222;-77
2021/05/10 10:38:02;;;;;;;2.13;1.57;;;;;;;27.04;41.06;98230.88;10504299;28;20182;-78
2021/05/10 10:43:23;;;;;;;2.10;1.77;;;;;;;26.43;42.26;98248.88;10503632;28;20210;-78
2021/05/10 10:48:44;;;;;;;1.63;1.53;;;;;;;26.74;41.18;98266.78;10502553;28;20175;-77
2021/05/10 10:54:19;;;;;;;4.20;2.00;;;;;;;26.61;40.77;98267.97;10478387;28;20183;-77
2021/05/10 10:59:39;;;;;;;1.70;1.60;;;;;;;25.60;42.14;98276.81;10471199;28;20175;-76
2021/05/10 11:05:35;;;;;;;3.70;2.00;;;;;;;25.37;43.63;98264.06;10463196;28;20206;-77
2021/05/10 11:10:55;;;;;;;4.33;1.70;;;;;;;26.18;42.71;98256.50;10461545;28;20172;-78
2021/05/10 11:23:18;;;;;;;1.53;1.43;;;;;;;27.07;42.41;98229.78;10481863;28;20191;-78
2021/05/10 11:28:40;;;;;;;1.43;1.33;;;;;;;27.41;40.11;98239.41;10501913;28;20692;-78
2021/05/10 11:33:59;;;;;;;1.80;1.70;;;;;;;26.58;41.79;98244.38;10500819;28;20194;-78
2021/05/10 11:39:27;;;;;;;1.50;1.40;;;;;;;25.79;42.89;98266.47;10500956;28;20250;-79
2021/05/10 11:44:54;;;;;;;1.40;1.30;;;;;;;25.99;43.91;98266.09;10501551;28;20215;-79
2021/05/10 11:50:13;;;;;;;1.73;1.63;;;;;;;26.39;41.18;98279.44;10500302;28;20637;-78
2021/05/10 11:55:32;;;;;;;1.80;1.70;;;;;;;25.87;42.67;98285.13;10501435;28;20178;-78
2021/05/10 12:00:51;;;;;;;4.80;1.37;;;;;;;25.72;41.95;98309.25;10499914;28;20174;-78
2021/05/10 12:06:30;;;;;;;1.70;1.60;;;;;;;26.35;41.96;98326.84;10500594;28;20202;-79
2021/05/10 12:11:49;;;;;;;2.20;2.00;;;;;;;26.16;41.23;98348.53;10500657;28;20167;-78
2021/05/10 12:17:10;;;;;;;1.27;1.17;;;;;;;25.57;42.82;98348.25;10499254;28;20171;-78
2021/05/10 12:22:32;;;;;;;1.30;1.00;;;;;;;25.47;42.69;98347.00;10500260;28;20781;-78
2021/05/10 12:28:24;;;;;;;1.50;1.40;;;;;;;24.99;44.25;98371.88;10499114;28;20267;-77
2021/05/10 12:33:46;;;;;;;1.10;0.90;;;;;;;24.98;43.00;98378.78;10497854;28;20225;-78
2021/05/10 12:39:13;;;;;;;2.50;1.00;;;;;;;24.84;41.47;98389.56;10499454;28;20179;-77
2021/05/10 12:44:32;;;;;;;1.00;0.80;;;;;;;24.56;41.68;98394.38;10498487;28;20226;-78
2021/05/10 12:49:52;;;;;;;0.90;0.50;;;;;;;25.00;43.23;98395.94;10498002;28;20183;-77
2021/05/10 12:55:19;;;;;;;1.20;0.70;;;;;;;25.01;40.86;98397.47;10498114;28;20178;-77
2021/05/10 13:00:39;;;;;;;1.10;0.80;;;;;;;24.34;41.01;98399.94;10456106;28;20183;-77
2021/05/10 13:06:01;;;;;;;1.00;0.60;;;;;;;24.42;40.84;98407.38;10456847;28;20199;-78
2021/05/10 13:11:23;;;;;;;1.10;0.70;;;;;;;23.77;40.50;98413.53;10455999;28;20535;-77
2021/05/10 13:22:32;;;;;;;1.00;0.60;;;;;;;23.52;41.73;98410.81;10456094;28;20179;-77
2021/05/10 13:34:23;;;;;;;1.10;0.60;;;;;;;23.43;41.37;98396.97;10454552;28;20231;-76
2021/05/10 13:39:16;;;;;;;1.00;0.70;;;;;;;23.87;40.87;98389.56;10455401;28;20187;-76
2021/05/10 13:44:36;;;;;;;1.00;0.63;;;;;;;24.04;40.44;98381.97;10454219;28;20203;-76
2021/05/10 13:49:55;;;;;;;0.90;0.60;;;;;;;24.44;42.13;98387.97;10455195;28;20192;-77
2021/05/10 13:55:14;;;;;;;7.80;0.90;;;;;;;24.86;39.14;98389.81;10455819;28;20179;-76
2021/05/10 14:00:33;;;;;;;1.07;0.60;;;;;;;24.90;37.99;98391.09;10454009;28;20560;-76
2021/05/10 14:05:52;;;;;;;0.90;0.60;;;;;;;24.51;41.43;98378.28;10455303;28;20207;-76
2021/05/10 14:11:11;;;;;;;1.30;1.10;;;;;;;24.22;41.22;98364.66;10455560;28;20662;-76
2021/05/10 14:16:30;;;;;;;0.90;0.50;;;;;;;24.03;39.38;98366.38;10454173;28;20183;-76
2021/05/10 14:22:02;;;;;;;0.90;0.60;;;;;;;23.92;39.16;98357.16;10455058;28;20207;-77
2021/05/10 14:27:21;;;;;;;1.20;0.70;;;;;;;23.90;39.85;98351.25;10453426;28;20230;-76
2021/05/10 14:32:40;;;;;;;1.40;0.60;;;;;;;24.08;42.07;98362.06;10452554;28;20219;-76
2021/05/10 14:37:59;;;;;;;0.90;0.53;;;;;;;23.73;41.20;98368.03;10468268;28;20262;-76
2021/05/10 14:43:18;;;;;;;1.30;0.80;;;;;;;23.45;41.62;98378.34;10454943;28;20278;-76
2021/05/10 14:48:37;;;;;;;0.80;0.50;;;;;;;23.32;41.83;98376.50;10452824;28;20258;-76
2021/05/10 14:54:02;;;;;;;1.00;0.60;;;;;;;23.36;42.88;98378.56;10456390;28;20211;-76
2021/05/10 14:59:21;;;;;;;0.83;0.50;;;;;;;23.50;42.42;98371.22;10461124;28;20183;-76
2021/05/10 15:04:40;;;;;;;0.93;0.57;;;;;;;23.37;41.87;98376.53;10460848;28;20569;-76
2021/05/10 15:09:59;;;;;;;0.87;0.40;;;;;;;23.51;43.37;98381.19;10461473;28;20605;-76
2021/05/10 15:15:19;;;;;;;0.90;0.60;;;;;;;23.30;42.95;98374.19;10460732;28;20187;-76
2021/05/10 15:20:38;;;;;;;1.00;0.60;;;;;;;23.33;41.96;98369.63;10460289;28;20266;-76
2021/05/10 15:25:57;;;;;;;1.87;0.60;;;;;;;23.14;41.90;98366.41;10460834;28;20227;-77
2021/05/10 15:31:16;;;;;;;0.80;0.40;;;;;;;22.71;43.23;98383.66;10461095;28;20596;-76
2021/05/10 15:36:38;;;;;;;0.90;0.50;;;;;;;22.41;44.49;98382.38;10460133;28;20175;-76
2021/05/10 15:41:58;;;;;;;0.90;0.50;;;;;;;22.11;44.59;98391.44;10460553;28;20175;-76
2021/05/10 15:47:17;;;;;;;0.90;0.53;;;;;;;21.70;45.84;98390.72;10458587;28;20203;-77
2021/05/10 15:52:37;;;;;;;0.90;0.50;;;;;;;21.65;46.71;98375.88;10459179;28;20530;-77
2021/05/10 15:57:56;;;;;;;1.07;0.60;;;;;;;21.75;47.41;98373.19;10459903;28;20183;-77
2021/05/10 16:03:17;;;;;;;1.03;0.60;;;;;;;21.76;46.75;98357.19;10458608;28;20179;-78
2021/05/10 16:08:37;;;;;;;1.00;0.50;;;;;;;21.36;49.47;98342.38;10458939;28;20808;-77
2021/05/10 16:13:56;;;;;;;0.93;0.60;;;;;;;21.52;47.25;98369.81;10459373;28;20186;-77
2021/05/10 16:19:16;;;;;;;0.90;0.50;;;;;;;21.43;48.93;98358.75;10457867;28;20183;-77
2021/05/10 16:24:36;;;;;;;0.90;0.57;;;;;;;21.50;47.79;98358.31;10458645;28;20215;-78
2021/05/10 16:29:55;;;;;;;1.03;0.63;;;;;;;21.16;49.64;98365.50;10456893;28;20223;-76
2021/05/10 16:35:14;;;;;;;1.00;0.60;;;;;;;21.22;50.23;98363.53;10457448;28;20179;-76
2021/05/10 16:40:33;;;;;;;1.00;0.60;;;;;;;20.91;50.09;98362.59;10458426;28;20346;-78
2021/05/10 16:45:53;;;;;;;1.00;0.70;;;;;;;20.84;49.36;98357.38;10456497;28;20207;-76
2021/05/10 16:51:12;;;;;;;1.00;0.60;;;;;;;20.63;50.40;98354.97;10457915;28;20646;-78
2021/05/10 16:56:31;;;;;;;1.30;1.00;;;;;;;20.49;51.64;98375.31;10456521;28;20175;-78
2021/05/10 17:01:50;;;;;;;1.20;0.70;;;;;;;20.47;51.64;98372.25;10455223;28;20172;-78
2021/05/10 17:07:09;;;;;;;1.00;0.70;;;;;;;20.31;53.23;98381.88;10455655;28;20203;-79
2021/05/10 17:12:28;;;;;;;3.93;0.60;;;;;;;20.26;52.37;98376.97;10457182;28;20191;-77
2021/05/10 17:17:47;;;;;;;0.90;0.50;;;;;;;20.14;53.00;98380.78;10453897;28;20183;-77
2021/05/10 17:23:06;;;;;;;0.80;0.50;;;;;;;20.22;52.51;98384.75;10456825;28;20192;-77
2021/05/10 17:28:25;;;;;;;0.90;0.60;;;;;;;19.87;54.29;98377.44;10454916;28;20234;-76
2021/05/10 17:33:44;;;;;;;0.80;0.47;;;;;;;19.79;56.22;98373.47;10454331;28;20231;-76
2021/05/10 17:39:10;;;;;;;0.80;0.50;;;;;;;19.83;55.83;98340.53;10456336;28;20681;-77
2021/05/10 17:44:30;;;;;;;0.80;0.40;;;;;;;19.83;55.09;98342.56;10454881;28;20211;-76
2021/05/10 17:49:49;;;;;;;0.90;0.50;;;;;;;19.57;56.09;98350.69;10453831;28;20729;-76
2021/05/10 17:55:09;;;;;;;0.90;0.50;;;;;;;19.57;56.40;98356.28;10455821;28;20206;-75
2021/05/10 18:00:28;;;;;;;1.07;0.80;;;;;;;19.28;57.71;98347.78;10454933;28;20308;-76
2021/05/10 18:05:47;;;;;;;0.90;0.50;;;;;;;19.24;58.27;98344.41;10454351;28;20207;-76
2021/05/10 18:11:06;;;;;;;0.90;0.50;;;;;;;19.14;59.27;98342.16;10455701;28;20636;-76
2021/05/10 18:16:28;;;;;;;0.80;0.50;;;;;;;19.12;59.21;98335.50;10454239;28;20202;-76
2021/05/10 18:21:47;;;;;;;0.90;0.40;;;;;;;19.02;59.72;98343.13;10455482;28;20634;-76
2021/05/10 18:27:10;;;;;;;0.90;0.53;;;;;;;18.77;61.16;98332.41;10453547;28;20246;-78
2021/05/10 18:32:29;;;;;;;1.00;0.50;;;;;;;18.65;61.69;98357.69;10461533;28;20179;-79
2021/05/10 18:37:50;;;;;;;1.00;0.60;;;;;;;18.58;61.38;98353.22;10463143;28;20176;-77
2021/05/10 18:43:09;;;;;;;0.90;0.50;;;;;;;18.33;63.54;98308.28;10461845;28;20187;-78
2021/05/10 18:48:28;;;;;;;0.90;0.50;;;;;;;18.33;63.49;98288.78;10461495;28;20179;-78
2021/05/10 18:53:47;;;;;;;1.00;0.60;;;;;;;18.26;64.78;98318.97;10462451;28;20207;-78
2021/05/10 18:59:08;;;;;;;0.90;0.50;;;;;;;17.97;66.45;98315.94;10462415;28;20171;-78
2021/05/10 19:04:27;;;;;;;1.00;0.50;;;;;;;17.96;67.04;98306.81;10460962;28;20203;-79
2021/05/10 19:09:46;;;;;;;0.90;0.50;;;;;;;17.85;67.99;98336.38;10462002;28;20319;-77
2021/05/10 19:15:06;;;;;;;0.90;0.50;;;;;;;17.87;67.77;98353.34;10461746;28;20215;-77
2021/05/10 19:20:26;;;;;;;0.90;0.50;;;;;;;17.80;68.25;98348.09;10460370;28;20175;-78
2021/05/10 19:25:45;;;;;;;1.10;0.70;;;;;;;17.50;70.14;98342.69;10460936;28;20211;-78
2021/05/10 19:31:04;;;;;;;1.20;0.87;;;;;;;17.52;69.96;98365.25;10458793;28;20641;-78
2021/05/10 19:36:24;;;;;;;1.00;0.50;;;;;;;17.51;70.23;98364.47;10460941;28;20183;-78
2021/05/10 19:41:43;;;;;;;0.90;0.50;;;;;;;17.19;72.80;98370.59;10459822;28;20179;-79
2021/05/10 19:47:11;;;;;;;1.17;0.53;;;;;;;17.24;72.82;98377.53;10458693;28;20207;-79
2021/05/10 20:09:06;;;;;;;1.03;0.50;;;;;;;16.96;75.37;98365.56;10459478;28;20175;-77
2021/05/10 20:14:25;;;;;;;1.00;0.70;;;;;;;16.85;76.44;98368.00;10459349;28;20637;-77
2021/05/10 20:19:44;;;;;;;1.10;0.70;;;;;;;16.95;76.60;98360.47;10456901;28;20171;-77
2021/05/10 20:25:04;;;;;;;0.90;0.57;;;;;;;16.85;77.20;98356.09;10458672;28;20258;-77
2021/05/10 20:30:23;;;;;;;1.00;0.50;;;;;;;16.47;80.38;98352.13;10458012;28;20230;-77
2021/05/10 20:35:43;;;;;;;1.07;0.70;;;;;;;16.54;80.49;98344.28;10458480;28;20259;-77
2021/05/10 20:41:02;;;;;;;1.00;0.70;;;;;;;16.28;81.88;98339.34;10457430;28;20575;-76
2021/05/10 20:46:21;;;;;;;1.00;0.60;;;;;;;16.30;82.02;98350.78;10456581;28;20211;-78
2021/05/10 20:51:40;;;;;;;1.00;0.50;;;;;;;16.25;82.89;98329.91;10456937;28;20183;-77
2021/05/10 20:56:59;;;;;;;1.00;0.53;;;;;;;15.93;86.34;98318.47;10457041;28;20285;-76
2021/05/10 21:02:18;;;;;;;1.13;0.70;;;;;;;15.82;88.59;98323.66;10456294;28;20172;-76
2021/05/10 21:07:37;;;;;;;0.90;0.60;;;;;;;15.87;89.25;98319.53;10455644;28;20237;-77
2021/05/10 21:12:56;;;;;;;0.90;0.60;;;;;;;15.79;91.51;98327.31;10457101;28;20176;-78
2021/05/10 21:18:15;;;;;;;0.90;0.50;;;;;;;15.77;92.80;98329.75;10454767;28;20183;-78
2021/05/10 21:23:34;;;;;;;1.00;0.73;;;;;;;15.68;94.53;98326.16;10456794;28;20202;-77
2021/05/10 21:28:53;;;;;;;1.13;0.50;;;;;;;15.68;94.66;98328.91;10456118;28;20697;-78
2021/05/10 21:34:12;;;;;;;0.90;0.50;;;;;;;15.66;94.37;98329.38;10455325;28;20605;-76
2021/05/10 21:39:31;;;;;;;1.20;0.90;;;;;;;15.50;96.05;98335.13;10456259;28;20180;-77
2021/05/10 21:44:50;;;;;;;2.00;0.90;;;;;;;15.61;96.28;98341.03;10454776;28;20211;-77
2021/05/10 21:50:09;;;;;;;1.00;0.60;;;;;;;15.44;99.68;98336.13;10453711;28;20199;-77
2021/05/10 21:55:28;;;;;;;1.00;0.70;;;;;;;15.33;100.00;98327.41;10455006;28;20171;-78
2021/05/10 22:00:47;;;;;;;0.90;0.50;;;;;;;15.20;100.00;98321.84;10454705;28;20176;-77
2021/05/10 22:06:06;;;;;;;1.10;0.60;;;;;;;15.06;100.00;98310.50;10459924;28;20238;-77
2021/05/10 22:11:25;;;;;;;0.90;0.50;;;;;;;15.19;100.00;98306.44;10464168;28;20179;-77
2021/05/10 22:16:44;;;;;;;0.90;0.60;;;;;;;15.17;100.00;98310.91;10463170;28;20171;-76
2021/05/10 22:22:03;;;;;;;1.00;0.60;;;;;;;15.19;100.00;98309.22;10463837;28;20183;-77
2021/05/10 22:32:48;;;;;;;1.07;0.60;;;;;;;14.96;100.00;98299.75;10461410;28;20176;-76
2021/05/10 22:38:12;;;;;;;1.17;0.70;;;;;;;14.95;100.00;98301.78;10462740;28;20167;-76
2021/05/10 23:06:06;;;;;;;1.57;0.73;;;;;;;14.37;100.00;98296.97;10461303;28;20211;-77
2021/05/10 23:17:03;;;;;;;2.73;1.03;;;;;;;14.27;100.00;98294.50;10458490;28;20171;-78
2021/05/10 23:22:22;;;;;;;1.00;0.80;;;;;;;14.27;100.00;98275.94;10460363;28;20179;-77
2021/05/10 23:27:41;;;;;;;0.90;0.63;;;;;;;14.16;100.00;98236.75;10459574;28;20223;-78
2021/05/10 23:33:00;;;;;;;0.97;0.60;;;;;;;14.40;100.00;98243.50;10459806;28;20176;-76
2021/05/10 23:38:19;;;;;;;1.00;0.67;;;;;;;14.28;100.00;98255.38;10461120;28;20183;-76
2021/05/10 23:43:38;;;;;;;1.03;0.60;;;;;;;14.22;100.00;98254.34;10460489;28;20192;-75
2021/05/10 23:48:57;;;;;;;1.20;0.83;;;;;;;14.26;100.00;98252.25;10458332;28;20172;-76
2021/05/10 23:54:16;;;;;;;2.83;0.80;;;;;;;14.26;100.00;98263.31;10460275;28;20622;-77
2021/05/10 23:59:35;;;;;;;1.20;0.80;;;;;;;14.02;100.00;98275.91;10459222;28;20175;-78
